sensor_id;sensor_type;location;lat;lon;timestamp;temperature;humidity
3275;DHT22;1649;53.672;10.064;2023-11-21T00:00:15;8.00;99.90
3275;DHT22;1649;53.672;10.064;2023-11-21T00:02:41;8.00;99.90
3275;DHT22;1649;53.672;10.064;2023-11-21T00:05:08;7.90;99.90
3275;DHT22;1649;53.672;10.064;2023-11-21T00:07:35;7.90;99.90
3275;DHT22;1649;53.672;10.064;2023-11-21T00:10:00;7.80;99.90
3275;DHT22;1649;53.672;10.064;2023-11-21T00:12:26;7.80;99.90
3275;DHT22;1649;53.672;10.064;2023-11-21T00:14:51;7.70;99.90
3275;DHT22;1649;53.672;10.064;2023-11-21T00:17:17;7.70;99.90
3275;DHT22;1649;53.672;10.064;2023-11-21T00:19:42;7.70;99.90
3275;DHT22;1649;53.672;10.064;2023-11-21T00:22:08;7.70;99.90
3275;DHT22;1649;53.672;10.064;2023-11-21T00:24:34;7.70;99.90
3275;DHT22;1649;53.672;10.064;2023-11-21T00:27:00;7.60;99.90
3275;DHT22;1649;53.672;10.064;2023-11-21T00:29:25;7.70;99.90
3275;DHT22;1649;53.672;10.064;2023-11-21T00:31:51;7.60;99.90
3275;DHT22;1649;53.672;10.064;2023-11-21T00:34:17;7.60;99.90
3275;DHT22;1649;53.672;10.064;2023-11-21T00:36:42;7.50;99.90
3275;DHT22;1649;53.672;10.064;2023-11-21T00:39:07;7.50;99.90
3275;DHT22;1649;53.672;10.064;2023-11-21T00:41:34;7.40;99.90
3275;DHT22;1649;53.672;10.064;2023-11-21T00:44:00;7.40;99.90
3275;DHT22;1649;53.672;10.064;2023-11-21T00:46:26;7.40;99.90
3275;DHT22;1649;53.672;10.064;2023-11-21T00:48:55;7.40;99.90
3275;DHT22;1649;53.672;10.064;2023-11-21T00:51:21;7.40;99.90
3275;DHT22;1649;53.672;10.064;2023-11-21T00:53:47;7.40;99.90
3275;DHT22;1649;53.672;10.064;2023-11-21T00:56:13;7.40;99.90
3275;DHT22;1649;53.672;10.064;2023-11-21T00:58:39;7.30;99.90
3275;DHT22;1649;53.672;10.064;2023-11-21T01:01:04;7.30;99.90
3275;DHT22;1649;53.672;10.064;2023-11-21T01:03:30;7.30;99.90
3275;DHT22;1649;53.672;10.064;2023-11-21T01:05:55;7.30;99.90
3275;DHT22;1649;53.672;10.064;2023-11-21T01:08:21;7.20;99.90
3275;DHT22;1649;53.672;10.064;2023-11-21T01:10:46;7.10;99.90
3275;DHT22;1649;53.672;10.064;2023-11-21T01:13:14;7.10;99.90
3275;DHT22;1649;53.672;10.064;2023-11-21T01:15:40;7.10;99.90
3275;DHT22;1649;53.672;10.064;2023-11-21T01:18:07;7.10;99.90
3275;DHT22;1649;53.672;10.064;2023-11-21T01:20:34;7.10;99.90
3275;DHT22;1649;53.672;10.064;2023-11-21T01:22:59;7.10;99.90
3275;DHT22;1649;53.672;10.064;2023-11-21T01:25:25;7.10;99.90
3275;DHT22;1649;53.672;10.064;2023-11-21T01:27:51;7.10;99.90
3275;DHT22;1649;53.672;10.064;2023-11-21T01:30:17;7.10;99.90
3275;DHT22;1649;53.672;10.064;2023-11-21T01:32:43;7.00;99.90
3275;DHT22;1649;53.672;10.064;2023-11-21T01:35:09;7.00;99.90
3275;DHT22;1649;53.672;10.064;2023-11-21T01:37:36;7.00;99.90
3275;DHT22;1649;53.672;10.064;2023-11-21T01:40:02;7.00;99.90
3275;DHT22;1649;53.672;10.064;2023-11-21T01:42:30;7.00;99.90
3275;DHT22;1649;53.672;10.064;2023-11-21T01:44:56;7.00;99.90
3275;DHT22;1649;53.672;10.064;2023-11-21T01:47:21;6.90;99.90
3275;DHT22;1649;53.672;10.064;2023-11-21T01:49:47;6.90;99.90
3275;DHT22;1649;53.672;10.064;2023-11-21T01:52:13;6.90;99.90
3275;DHT22;1649;53.672;10.064;2023-11-21T01:54:41;6.90;99.90
3275;DHT22;1649;53.672;10.064;2023-11-21T01:57:07;6.90;99.90
3275;DHT22;1649;53.672;10.064;2023-11-21T01:59:41;6.90;99.90
3275;DHT22;1649;53.672;10.064;2023-11-21T02:02:07;6.90;99.90
3275;DHT22;1649;53.672;10.064;2023-11-21T02:04:33;7.00;99.90
3275;DHT22;1649;53.672;10.064;2023-11-21T02:07:00;6.90;99.90
3275;DHT22;1649;53.672;10.064;2023-11-21T02:09:26;6.80;99.90
3275;DHT22;1649;53.672;10.064;2023-11-21T02:11:52;6.80;99.90
3275;DHT22;1649;53.672;10.064;2023-11-21T02:14:22;6.90;99.90
3275;DHT22;1649;53.672;10.064;2023-11-21T02:16:49;6.80;99.90
3275;DHT22;1649;53.672;10.064;2023-11-21T02:19:20;6.90;99.90
3275;DHT22;1649;53.672;10.064;2023-11-21T02:21:49;6.90;99.90
3275;DHT22;1649;53.672;10.064;2023-11-21T02:24:19;6.90;99.90
3275;DHT22;1649;53.672;10.064;2023-11-21T02:26:45;6.80;99.90
3275;DHT22;1649;53.672;10.064;2023-11-21T02:29:11;6.80;99.90
3275;DHT22;1649;53.672;10.064;2023-11-21T02:31:38;6.80;99.90
3275;DHT22;1649;53.672;10.064;2023-11-21T02:34:16;6.70;99.90
3275;DHT22;1649;53.672;10.064;2023-11-21T02:36:45;6.70;99.90
3275;DHT22;1649;53.672;10.064;2023-11-21T02:39:11;6.70;99.90
3275;DHT22;1649;53.672;10.064;2023-11-21T02:41:39;6.70;99.90
3275;DHT22;1649;53.672;10.064;2023-11-21T02:44:08;6.60;99.90
3275;DHT22;1649;53.672;10.064;2023-11-21T02:46:35;6.60;99.90
3275;DHT22;1649;53.672;10.064;2023-11-21T02:49:05;6.70;99.90
3275;DHT22;1649;53.672;10.064;2023-11-21T02:51:35;6.60;99.90
3275;DHT22;1649;53.672;10.064;2023-11-21T02:54:01;6.60;99.90
3275;DHT22;1649;53.672;10.064;2023-11-21T02:56:29;6.70;99.90
3275;DHT22;1649;53.672;10.064;2023-11-21T02:58:59;6.70;99.90
3275;DHT22;1649;53.672;10.064;2023-11-21T03:01:25;6.70;99.90
3275;DHT22;1649;53.672;10.064;2023-11-21T03:03:51;6.70;99.90
3275;DHT22;1649;53.672;10.064;2023-11-21T03:06:20;6.60;99.90
3275;DHT22;1649;53.672;10.064;2023-11-21T03:08:46;6.60;99.90
3275;DHT22;1649;53.672;10.064;2023-11-21T03:11:12;6.60;99.90
3275;DHT22;1649;53.672;10.064;2023-11-21T03:13:41;6.60;99.90
3275;DHT22;1649;53.672;10.064;2023-11-21T03:16:11;6.60;99.90
3275;DHT22;1649;53.672;10.064;2023-11-21T03:18:39;6.50;99.90
3275;DHT22;1649;53.672;10.064;2023-11-21T03:21:05;6.50;99.90
3275;DHT22;1649;53.672;10.064;2023-11-21T03:23:31;6.50;99.90
3275;DHT22;1649;53.672;10.064;2023-11-21T03:25:57;6.50;99.90
3275;DHT22;1649;53.672;10.064;2023-11-21T03:28:23;6.60;99.90
3275;DHT22;1649;53.672;10.064;2023-11-21T03:30:49;6.60;99.90
3275;DHT22;1649;53.672;10.064;2023-11-21T03:33:14;6.40;99.90
3275;DHT22;1649;53.672;10.064;2023-11-21T03:35:40;6.50;99.90
3275;DHT22;1649;53.672;10.064;2023-11-21T03:38:07;6.60;99.90
3275;DHT22;1649;53.672;10.064;2023-11-21T03:40:32;6.70;99.90
3275;DHT22;1649;53.672;10.064;2023-11-21T03:42:58;6.70;99.90
3275;DHT22;1649;53.672;10.064;2023-11-21T03:45:24;6.70;99.90
3275;DHT22;1649;53.672;10.064;2023-11-21T03:47:49;6.70;99.90
3275;DHT22;1649;53.672;10.064;2023-11-21T03:50:15;6.60;99.90
3275;DHT22;1649;53.672;10.064;2023-11-21T03:52:41;6.60;99.90
3275;DHT22;1649;53.672;10.064;2023-11-21T03:55:06;6.50;99.90
3275;DHT22;1649;53.672;10.064;2023-11-21T03:57:32;6.60;99.90
3275;DHT22;1649;53.672;10.064;2023-11-21T03:59:57;6.60;99.90
3275;DHT22;1649;53.672;10.064;2023-11-21T04:02:23;6.60;99.90
3275;DHT22;1649;53.672;10.064;2023-11-21T04:04:51;6.60;99.90
3275;DHT22;1649;53.672;10.064;2023-11-21T04:07:16;6.50;99.90
3275;DHT22;1649;53.672;10.064;2023-11-21T04:09:43;6.50;99.90
3275;DHT22;1649;53.672;10.064;2023-11-21T04:12:08;6.60;99.90
3275;DHT22;1649;53.672;10.064;2023-11-21T04:14:38;6.60;99.90
3275;DHT22;1649;53.672;10.064;2023-11-21T04:17:04;6.60;99.90
3275;DHT22;1649;53.672;10.064;2023-11-21T04:19:30;6.60;99.90
3275;DHT22;1649;53.672;10.064;2023-11-21T04:21:55;6.50;99.90
3275;DHT22;1649;53.672;10.064;2023-11-21T04:24:21;6.50;99.90
3275;DHT22;1649;53.672;10.064;2023-11-21T04:26:46;6.60;99.90
3275;DHT22;1649;53.672;10.064;2023-11-21T04:29:12;6.70;99.90
3275;DHT22;1649;53.672;10.064;2023-11-21T04:31:37;6.70;99.90
3275;DHT22;1649;53.672;10.064;2023-11-21T04:34:03;6.60;99.90
3275;DHT22;1649;53.672;10.064;2023-11-21T04:36:29;6.60;99.90
3275;DHT22;1649;53.672;10.064;2023-11-21T04:38:56;6.60;99.90
3275;DHT22;1649;53.672;10.064;2023-11-21T04:41:21;6.60;99.90
3275;DHT22;1649;53.672;10.064;2023-11-21T04:43:47;6.60;99.90
3275;DHT22;1649;53.672;10.064;2023-11-21T04:46:12;6.70;99.90
3275;DHT22;1649;53.672;10.064;2023-11-21T04:48:38;6.70;99.90
3275;DHT22;1649;53.672;10.064;2023-11-21T04:51:03;6.50;99.90
3275;DHT22;1649;53.672;10.064;2023-11-21T04:53:30;6.60;99.90
3275;DHT22;1649;53.672;10.064;2023-11-21T04:55:55;6.60;99.90
3275;DHT22;1649;53.672;10.064;2023-11-21T04:58:21;6.50;99.90
3275;DHT22;1649;53.672;10.064;2023-11-21T05:00:46;6.50;99.90
3275;DHT22;1649;53.672;10.064;2023-11-21T05:03:12;6.60;99.90
3275;DHT22;1649;53.672;10.064;2023-11-21T05:05:37;6.60;99.90
3275;DHT22;1649;53.672;10.064;2023-11-21T05:08:03;6.50;99.90
3275;DHT22;1649;53.672;10.064;2023-11-21T05:10:30;6.50;99.90
3275;DHT22;1649;53.672;10.064;2023-11-21T05:12:55;6.50;99.90
3275;DHT22;1649;53.672;10.064;2023-11-21T05:15:21;6.50;99.90
3275;DHT22;1649;53.672;10.064;2023-11-21T05:17:47;6.50;99.90
3275;DHT22;1649;53.672;10.064;2023-11-21T05:20:16;6.60;99.90
3275;DHT22;1649;53.672;10.064;2023-11-21T05:22:49;6.60;99.90
3275;DHT22;1649;53.672;10.064;2023-11-21T05:25:15;6.60;99.90
3275;DHT22;1649;53.672;10.064;2023-11-21T05:27:42;6.60;99.90
3275;DHT22;1649;53.672;10.064;2023-11-21T05:30:07;6.60;99.90
3275;DHT22;1649;53.672;10.064;2023-11-21T05:32:37;6.60;99.90
3275;DHT22;1649;53.672;10.064;2023-11-21T05:35:03;6.60;99.90
3275;DHT22;1649;53.672;10.064;2023-11-21T05:37:29;6.60;99.90
3275;DHT22;1649;53.672;10.064;2023-11-21T05:39:55;6.60;99.90
3275;DHT22;1649;53.672;10.064;2023-11-21T05:42:25;6.60;99.90
3275;DHT22;1649;53.672;10.064;2023-11-21T05:44:50;6.60;99.90
3275;DHT22;1649;53.672;10.064;2023-11-21T05:47:16;6.50;99.90
3275;DHT22;1649;53.672;10.064;2023-11-21T05:49:41;6.60;99.90
3275;DHT22;1649;53.672;10.064;2023-11-21T05:52:07;6.60;99.90
3275;DHT22;1649;53.672;10.064;2023-11-21T05:54:32;6.60;99.90
3275;DHT22;1649;53.672;10.064;2023-11-21T05:56:59;6.70;99.90
3275;DHT22;1649;53.672;10.064;2023-11-21T05:59:24;6.70;99.90
3275;DHT22;1649;53.672;10.064;2023-11-21T06:01:50;6.70;99.90
3275;DHT22;1649;53.672;10.064;2023-11-21T06:04:15;6.70;99.90
3275;DHT22;1649;53.672;10.064;2023-11-21T06:06:41;6.80;99.90
3275;DHT22;1649;53.672;10.064;2023-11-21T06:09:06;6.80;99.90
3275;DHT22;1649;53.672;10.064;2023-11-21T06:11:34;6.70;99.90
3275;DHT22;1649;53.672;10.064;2023-11-21T06:14:00;6.70;99.90
3275;DHT22;1649;53.672;10.064;2023-11-21T06:16:25;6.70;99.90
3275;DHT22;1649;53.672;10.064;2023-11-21T06:18:51;6.70;99.90
3275;DHT22;1649;53.672;10.064;2023-11-21T06:21:16;6.70;99.90
3275;DHT22;1649;53.672;10.064;2023-11-21T06:23:43;6.60;99.90
3275;DHT22;1649;53.672;10.064;2023-11-21T06:26:08;6.50;99.90
3275;DHT22;1649;53.672;10.064;2023-11-21T06:28:35;6.60;99.90
3275;DHT22;1649;53.672;10.064;2023-11-21T06:31:01;6.50;99.90
3275;DHT22;1649;53.672;10.064;2023-11-21T06:33:33;6.60;99.90
3275;DHT22;1649;53.672;10.064;2023-11-21T06:35:59;6.60;99.90
3275;DHT22;1649;53.672;10.064;2023-11-21T06:38:28;6.70;99.90
3275;DHT22;1649;53.672;10.064;2023-11-21T06:40:55;6.70;99.90
3275;DHT22;1649;53.672;10.064;2023-11-21T06:43:21;6.70;99.90
3275;DHT22;1649;53.672;10.064;2023-11-21T06:45:47;6.70;99.90
3275;DHT22;1649;53.672;10.064;2023-11-21T06:48:12;6.70;99.90
3275;DHT22;1649;53.672;10.064;2023-11-21T06:50:38;6.70;99.90
3275;DHT22;1649;53.672;10.064;2023-11-21T06:53:03;6.70;99.90
3275;DHT22;1649;53.672;10.064;2023-11-21T06:55:32;6.70;99.90
3275;DHT22;1649;53.672;10.064;2023-11-21T06:57:57;6.70;99.90
3275;DHT22;1649;53.672;10.064;2023-11-21T07:00:23;6.70;99.90
3275;DHT22;1649;53.672;10.064;2023-11-21T07:02:49;6.70;99.90
3275;DHT22;1649;53.672;10.064;2023-11-21T07:05:14;6.70;99.90
3275;DHT22;1649;53.672;10.064;2023-11-21T07:07:40;6.70;99.90
3275;DHT22;1649;53.672;10.064;2023-11-21T07:10:06;6.60;99.90
3275;DHT22;1649;53.672;10.064;2023-11-21T07:12:33;6.60;99.90
3275;DHT22;1649;53.672;10.064;2023-11-21T07:14:59;6.60;99.90
3275;DHT22;1649;53.672;10.064;2023-11-21T07:17:25;6.60;99.90
3275;DHT22;1649;53.672;10.064;2023-11-21T07:19:50;6.60;99.90
3275;DHT22;1649;53.672;10.064;2023-11-21T07:22:16;6.70;99.90
3275;DHT22;1649;53.672;10.064;2023-11-21T07:24:51;6.60;99.90
3275;DHT22;1649;53.672;10.064;2023-11-21T07:27:17;6.70;99.90
3275;DHT22;1649;53.672;10.064;2023-11-21T07:29:42;6.70;99.90
3275;DHT22;1649;53.672;10.064;2023-11-21T07:32:08;6.70;99.90
3275;DHT22;1649;53.672;10.064;2023-11-21T07:34:35;6.60;99.90
3275;DHT22;1649;53.672;10.064;2023-11-21T07:37:01;6.60;99.90
3275;DHT22;1649;53.672;10.064;2023-11-21T07:39:27;6.60;99.90
3275;DHT22;1649;53.672;10.064;2023-11-21T07:41:52;6.60;99.90
3275;DHT22;1649;53.672;10.064;2023-11-21T07:44:18;6.60;99.90
3275;DHT22;1649;53.672;10.064;2023-11-21T07:46:45;6.60;99.90
3275;DHT22;1649;53.672;10.064;2023-11-21T07:49:10;6.60;99.90
3275;DHT22;1649;53.672;10.064;2023-11-21T07:51:36;6.60;99.90
3275;DHT22;1649;53.672;10.064;2023-11-21T07:54:01;6.60;99.90
3275;DHT22;1649;53.672;10.064;2023-11-21T07:56:27;6.60;99.90
3275;DHT22;1649;53.672;10.064;2023-11-21T07:58:52;6.50;99.90
3275;DHT22;1649;53.672;10.064;2023-11-21T08:01:18;6.60;99.90
3275;DHT22;1649;53.672;10.064;2023-11-21T08:03:43;6.50;99.90
3275;DHT22;1649;53.672;10.064;2023-11-21T08:06:09;6.60;99.90
3275;DHT22;1649;53.672;10.064;2023-11-21T08:08:35;6.50;99.90
3275;DHT22;1649;53.672;10.064;2023-11-21T08:11:00;6.60;99.90
3275;DHT22;1649;53.672;10.064;2023-11-21T08:13:27;6.70;99.90
3275;DHT22;1649;53.672;10.064;2023-11-21T08:15:57;6.70;99.90
3275;DHT22;1649;53.672;10.064;2023-11-21T08:18:28;6.80;99.90
3275;DHT22;1649;53.672;10.064;2023-11-21T08:20:55;6.80;99.90
3275;DHT22;1649;53.672;10.064;2023-11-21T08:23:21;6.90;99.90
3275;DHT22;1649;53.672;10.064;2023-11-21T08:25:51;6.90;99.90
3275;DHT22;1649;53.672;10.064;2023-11-21T08:28:16;6.90;99.90
3275;DHT22;1649;53.672;10.064;2023-11-21T08:30:42;6.90;99.90
3275;DHT22;1649;53.672;10.064;2023-11-21T08:33:08;6.90;99.90
3275;DHT22;1649;53.672;10.064;2023-11-21T08:35:34;6.90;99.90
3275;DHT22;1649;53.672;10.064;2023-11-21T08:38:00;6.90;99.90
3275;DHT22;1649;53.672;10.064;2023-11-21T08:40:25;6.90;99.90
3275;DHT22;1649;53.672;10.064;2023-11-21T08:42:51;6.90;99.90
3275;DHT22;1649;53.672;10.064;2023-11-21T08:45:18;6.90;99.90
3275;DHT22;1649;53.672;10.064;2023-11-21T08:47:44;6.70;99.90
3275;DHT22;1649;53.672;10.064;2023-11-21T08:50:10;6.70;99.90
3275;DHT22;1649;53.672;10.064;2023-11-21T08:52:40;6.60;99.90
3275;DHT22;1649;53.672;10.064;2023-11-21T08:55:06;6.50;99.90
3275;DHT22;1649;53.672;10.064;2023-11-21T08:57:35;6.60;99.90
3275;DHT22;1649;53.672;10.064;2023-11-21T09:00:02;6.60;99.90
3275;DHT22;1649;53.672;10.064;2023-11-21T09:02:28;6.60;99.90
3275;DHT22;1649;53.672;10.064;2023-11-21T09:04:53;6.60;99.90
3275;DHT22;1649;53.672;10.064;2023-11-21T09:07:19;6.60;99.90
3275;DHT22;1649;53.672;10.064;2023-11-21T09:09:48;6.60;99.90
3275;DHT22;1649;53.672;10.064;2023-11-21T09:12:15;6.60;99.90
3275;DHT22;1649;53.672;10.064;2023-11-21T09:14:42;6.60;99.90
3275;DHT22;1649;53.672;10.064;2023-11-21T09:17:09;6.60;99.90
3275;DHT22;1649;53.672;10.064;2023-11-21T09:19:37;6.60;99.90
3275;DHT22;1649;53.672;10.064;2023-11-21T09:22:03;6.60;99.90
3275;DHT22;1649;53.672;10.064;2023-11-21T09:24:28;6.60;99.90
3275;DHT22;1649;53.672;10.064;2023-11-21T09:26:54;6.70;99.90
3275;DHT22;1649;53.672;10.064;2023-11-21T09:29:19;6.60;99.90
3275;DHT22;1649;53.672;10.064;2023-11-21T09:31:45;6.50;99.90
3275;DHT22;1649;53.672;10.064;2023-11-21T09:34:10;6.50;99.90
3275;DHT22;1649;53.672;10.064;2023-11-21T09:36:36;6.50;99.90
3275;DHT22;1649;53.672;10.064;2023-11-21T09:39:04;6.60;99.90
3275;DHT22;1649;53.672;10.064;2023-11-21T09:41:52;6.60;99.90
3275;DHT22;1649;53.672;10.064;2023-11-21T09:44:29;6.50;99.90
3275;DHT22;1649;53.672;10.064;2023-11-21T09:46:59;6.50;99.90
3275;DHT22;1649;53.672;10.064;2023-11-21T09:49:26;6.50;99.90
3275;DHT22;1649;53.672;10.064;2023-11-21T09:51:54;6.70;99.90
3275;DHT22;1649;53.672;10.064;2023-11-21T09:54:21;6.70;99.90
3275;DHT22;1649;53.672;10.064;2023-11-21T09:56:47;6.80;99.90
3275;DHT22;1649;53.672;10.064;2023-11-21T09:59:15;6.80;99.90
3275;DHT22;1649;53.672;10.064;2023-11-21T10:01:42;6.80;99.90
3275;DHT22;1649;53.672;10.064;2023-11-21T10:04:08;6.80;99.90
3275;DHT22;1649;53.672;10.064;2023-11-21T10:06:39;6.80;99.90
3275;DHT22;1649;53.672;10.064;2023-11-21T10:09:06;6.80;99.90
3275;DHT22;1649;53.672;10.064;2023-11-21T10:11:41;6.80;99.90
3275;DHT22;1649;53.672;10.064;2023-11-21T10:14:10;6.80;99.90
3275;DHT22;1649;53.672;10.064;2023-11-21T10:16:36;6.80;99.90
3275;DHT22;1649;53.672;10.064;2023-11-21T10:19:04;6.80;99.90
3275;DHT22;1649;53.672;10.064;2023-11-21T10:21:32;6.90;99.90
3275;DHT22;1649;53.672;10.064;2023-11-21T10:23:58;6.90;99.90
3275;DHT22;1649;53.672;10.064;2023-11-21T10:26:26;7.00;99.90
3275;DHT22;1649;53.672;10.064;2023-11-21T10:28:59;7.00;99.90
3275;DHT22;1649;53.672;10.064;2023-11-21T10:31:27;6.80;99.90
3275;DHT22;1649;53.672;10.064;2023-11-21T10:33:52;7.00;99.90
3275;DHT22;1649;53.672;10.064;2023-11-21T10:36:26;6.90;99.90
3275;DHT22;1649;53.672;10.064;2023-11-21T10:38:53;6.90;99.90
3275;DHT22;1649;53.672;10.064;2023-11-21T10:41:19;6.80;99.90
3275;DHT22;1649;53.672;10.064;2023-11-21T10:43:45;6.80;99.90
3275;DHT22;1649;53.672;10.064;2023-11-21T10:46:10;6.70;99.90
3275;DHT22;1649;53.672;10.064;2023-11-21T10:48:36;6.70;99.90
3275;DHT22;1649;53.672;10.064;2023-11-21T10:51:06;6.70;99.90
3275;DHT22;1649;53.672;10.064;2023-11-21T10:53:33;6.70;99.90
3275;DHT22;1649;53.672;10.064;2023-11-21T10:56:08;6.70;99.90
3275;DHT22;1649;53.672;10.064;2023-11-21T10:58:37;6.60;99.90
3275;DHT22;1649;53.672;10.064;2023-11-21T11:01:06;6.60;99.90
3275;DHT22;1649;53.672;10.064;2023-11-21T11:03:32;6.60;99.90
3275;DHT22;1649;53.672;10.064;2023-11-21T11:05:59;6.60;99.90
3275;DHT22;1649;53.672;10.064;2023-11-21T11:08:25;6.70;99.90
3275;DHT22;1649;53.672;10.064;2023-11-21T11:10:54;6.60;99.90
3275;DHT22;1649;53.672;10.064;2023-11-21T11:13:19;6.70;99.90
3275;DHT22;1649;53.672;10.064;2023-11-21T11:15:49;6.70;99.90
3275;DHT22;1649;53.672;10.064;2023-11-21T11:18:16;6.70;99.90
3275;DHT22;1649;53.672;10.064;2023-11-21T11:20:43;6.70;99.90
3275;DHT22;1649;53.672;10.064;2023-11-21T11:23:46;6.80;99.90
3275;DHT22;1649;53.672;10.064;2023-11-21T11:26:39;6.70;99.90
3275;DHT22;1649;53.672;10.064;2023-11-21T11:32:05;6.70;99.90
3275;DHT22;1649;53.672;10.064;2023-11-21T11:35:10;6.60;99.90
3275;DHT22;1649;53.672;10.064;2023-11-21T11:37:40;6.60;99.90
3275;DHT22;1649;53.672;10.064;2023-11-21T11:40:06;6.60;99.90
3275;DHT22;1649;53.672;10.064;2023-11-21T11:42:32;6.50;99.90
3275;DHT22;1649;53.672;10.064;2023-11-21T11:44:58;6.50;99.90
3275;DHT22;1649;53.672;10.064;2023-11-21T11:47:28;6.40;99.90
3275;DHT22;1649;53.672;10.064;2023-11-21T11:50:11;6.50;99.90
3275;DHT22;1649;53.672;10.064;2023-11-21T11:52:47;6.50;99.90
3275;DHT22;1649;53.672;10.064;2023-11-21T11:55:15;6.50;99.90
3275;DHT22;1649;53.672;10.064;2023-11-21T11:57:53;6.50;99.90
3275;DHT22;1649;53.672;10.064;2023-11-21T12:00:41;6.60;99.90
3275;DHT22;1649;53.672;10.064;2023-11-21T12:03:08;6.60;99.90
3275;DHT22;1649;53.672;10.064;2023-11-21T12:05:35;6.60;99.90
3275;DHT22;1649;53.672;10.064;2023-11-21T12:08:05;6.50;99.90
3275;DHT22;1649;53.672;10.064;2023-11-21T12:10:32;6.40;99.90
3275;DHT22;1649;53.672;10.064;2023-11-21T12:13:01;6.40;99.90
3275;DHT22;1649;53.672;10.064;2023-11-21T12:15:27;6.30;99.90
3275;DHT22;1649;53.672;10.064;2023-11-21T12:17:55;6.30;99.90
3275;DHT22;1649;53.672;10.064;2023-11-21T12:20:23;6.30;99.90
3275;DHT22;1649;53.672;10.064;2023-11-21T12:22:53;6.30;99.90
3275;DHT22;1649;53.672;10.064;2023-11-21T12:25:20;6.20;99.90
3275;DHT22;1649;53.672;10.064;2023-11-21T12:27:50;6.20;99.90
3275;DHT22;1649;53.672;10.064;2023-11-21T12:30:18;6.30;99.90
3275;DHT22;1649;53.672;10.064;2023-11-21T12:32:49;6.30;99.90
3275;DHT22;1649;53.672;10.064;2023-11-21T12:35:16;6.30;99.90
3275;DHT22;1649;53.672;10.064;2023-11-21T12:37:45;6.30;99.90
3275;DHT22;1649;53.672;10.064;2023-11-21T12:40:11;6.40;99.90
3275;DHT22;1649;53.672;10.064;2023-11-21T12:42:41;6.40;99.90
3275;DHT22;1649;53.672;10.064;2023-11-21T12:45:19;6.40;99.90
3275;DHT22;1649;53.672;10.064;2023-11-21T12:47:50;6.40;99.90
3275;DHT22;1649;53.672;10.064;2023-11-21T12:50:20;6.40;99.90
3275;DHT22;1649;53.672;10.064;2023-11-21T12:52:52;6.30;99.90
3275;DHT22;1649;53.672;10.064;2023-11-21T12:55:20;6.30;99.90
3275;DHT22;1649;53.672;10.064;2023-11-21T12:57:51;6.20;99.90
3275;DHT22;1649;53.672;10.064;2023-11-21T13:00:17;6.20;99.90
3275;DHT22;1649;53.672;10.064;2023-11-21T13:02:56;6.30;99.90
3275;DHT22;1649;53.672;10.064;2023-11-21T13:07:57;6.10;99.90
3275;DHT22;1649;53.672;10.064;2023-11-21T13:10:25;6.10;99.90
3275;DHT22;1649;53.672;10.064;2023-11-21T13:12:57;6.10;99.90
3275;DHT22;1649;53.672;10.064;2023-11-21T13:15:24;6.10;99.90
3275;DHT22;1649;53.672;10.064;2023-11-21T13:17:50;6.10;99.90
3275;DHT22;1649;53.672;10.064;2023-11-21T13:20:16;6.20;99.90
3275;DHT22;1649;53.672;10.064;2023-11-21T13:22:56;6.10;99.90
3275;DHT22;1649;53.672;10.064;2023-11-21T13:25:29;6.10;99.90
3275;DHT22;1649;53.672;10.064;2023-11-21T13:27:57;6.10;99.90
3275;DHT22;1649;53.672;10.064;2023-11-21T13:30:25;6.10;99.90
3275;DHT22;1649;53.672;10.064;2023-11-21T13:32:59;6.00;99.90
3275;DHT22;1649;53.672;10.064;2023-11-21T13:35:28;6.00;99.90
3275;DHT22;1649;53.672;10.064;2023-11-21T13:38:07;6.10;99.90
3275;DHT22;1649;53.672;10.064;2023-11-21T13:40:35;6.20;99.90
3275;DHT22;1649;53.672;10.064;2023-11-21T13:43:08;6.10;99.90
3275;DHT22;1649;53.672;10.064;2023-11-21T13:45:36;6.00;99.90
3275;DHT22;1649;53.672;10.064;2023-11-21T13:48:02;6.00;99.90
3275;DHT22;1649;53.672;10.064;2023-11-21T13:50:28;6.00;99.90
3275;DHT22;1649;53.672;10.064;2023-11-21T13:53:01;5.90;99.90
3275;DHT22;1649;53.672;10.064;2023-11-21T13:55:44;5.90;99.90
3275;DHT22;1649;53.672;10.064;2023-11-21T13:58:10;5.90;99.90
3275;DHT22;1649;53.672;10.064;2023-11-21T14:00:42;5.90;99.90
3275;DHT22;1649;53.672;10.064;2023-11-21T14:03:12;5.90;99.90
3275;DHT22;1649;53.672;10.064;2023-11-21T14:05:48;5.90;99.90
3275;DHT22;1649;53.672;10.064;2023-11-21T14:08:20;5.80;99.90
3275;DHT22;1649;53.672;10.064;2023-11-21T14:10:47;5.80;99.90
3275;DHT22;1649;53.672;10.064;2023-11-21T14:13:19;5.80;99.90
3275;DHT22;1649;53.672;10.064;2023-11-21T14:15:48;5.70;99.90
3275;DHT22;1649;53.672;10.064;2023-11-21T14:18:16;5.60;99.90
3275;DHT22;1649;53.672;10.064;2023-11-21T14:20:43;5.60;99.90
3275;DHT22;1649;53.672;10.064;2023-11-21T14:23:09;5.50;99.90
3275;DHT22;1649;53.672;10.064;2023-11-21T14:25:37;5.60;99.90
3275;DHT22;1649;53.672;10.064;2023-11-21T14:28:03;5.50;99.90
3275;DHT22;1649;53.672;10.064;2023-11-21T14:30:29;5.50;99.90
3275;DHT22;1649;53.672;10.064;2023-11-21T14:32:57;5.40;99.90
3275;DHT22;1649;53.672;10.064;2023-11-21T14:35:23;5.40;99.90
3275;DHT22;1649;53.672;10.064;2023-11-21T14:37:49;5.40;99.90
3275;DHT22;1649;53.672;10.064;2023-11-21T14:40:14;5.40;99.90
3275;DHT22;1649;53.672;10.064;2023-11-21T14:42:42;5.40;99.90
3275;DHT22;1649;53.672;10.064;2023-11-21T14:45:08;5.50;99.90
3275;DHT22;1649;53.672;10.064;2023-11-21T14:47:34;5.40;99.90
3275;DHT22;1649;53.672;10.064;2023-11-21T14:50:01;5.40;99.90
3275;DHT22;1649;53.672;10.064;2023-11-21T14:52:45;5.40;99.90
3275;DHT22;1649;53.672;10.064;2023-11-21T14:55:21;5.40;99.90
3275;DHT22;1649;53.672;10.064;2023-11-21T14:57:56;5.50;99.90
3275;DHT22;1649;53.672;10.064;2023-11-21T15:00:22;5.50;99.90
3275;DHT22;1649;53.672;10.064;2023-11-21T15:03:06;5.50;99.90
3275;DHT22;1649;53.672;10.064;2023-11-21T15:05:34;5.50;99.90
3275;DHT22;1649;53.672;10.064;2023-11-21T15:08:00;5.50;99.90
3275;DHT22;1649;53.672;10.064;2023-11-21T15:10:44;5.50;99.90
3275;DHT22;1649;53.672;10.064;2023-11-21T15:13:18;5.50;99.90
3275;DHT22;1649;53.672;10.064;2023-11-21T15:15:44;5.50;99.90
3275;DHT22;1649;53.672;10.064;2023-11-21T15:18:10;5.50;99.90
3275;DHT22;1649;53.672;10.064;2023-11-21T15:20:40;5.40;99.90
3275;DHT22;1649;53.672;10.064;2023-11-21T15:23:06;5.30;99.90
3275;DHT22;1649;53.672;10.064;2023-11-21T15:25:32;5.30;99.90
3275;DHT22;1649;53.672;10.064;2023-11-21T15:27:58;5.10;99.90
3275;DHT22;1649;53.672;10.064;2023-11-21T15:30:25;5.10;99.90
3275;DHT22;1649;53.672;10.064;2023-11-21T15:32:51;5.10;99.90
3275;DHT22;1649;53.672;10.064;2023-11-21T15:35:18;5.10;99.90
3275;DHT22;1649;53.672;10.064;2023-11-21T15:37:44;5.20;99.90
3275;DHT22;1649;53.672;10.064;2023-11-21T15:40:10;5.20;99.90
3275;DHT22;1649;53.672;10.064;2023-11-21T15:42:36;5.30;99.90
3275;DHT22;1649;53.672;10.064;2023-11-21T15:45:03;5.30;99.90
3275;DHT22;1649;53.672;10.064;2023-11-21T15:47:32;5.30;99.90
3275;DHT22;1649;53.672;10.064;2023-11-21T15:49:58;5.30;99.90
3275;DHT22;1649;53.672;10.064;2023-11-21T15:52:23;5.30;99.90
3275;DHT22;1649;53.672;10.064;2023-11-21T15:54:49;5.40;99.90
3275;DHT22;1649;53.672;10.064;2023-11-21T15:57:14;5.40;99.90
3275;DHT22;1649;53.672;10.064;2023-11-21T15:59:42;5.40;99.90
3275;DHT22;1649;53.672;10.064;2023-11-21T16:02:08;5.40;99.90
3275;DHT22;1649;53.672;10.064;2023-11-21T16:04:36;5.30;99.90
3275;DHT22;1649;53.672;10.064;2023-11-21T16:07:03;5.30;99.90
3275;DHT22;1649;53.672;10.064;2023-11-21T16:09:31;5.30;99.90